sensor_id;sensor_type;location;lat;lon;timestamp;P1;durP1;ratioP1;P2;durP2;ratioP2
9970;SDS011;5026;51.494;11.974;2022-09-03T00:01:36;2.13;;;0.98;;
9970;SDS011;5026;51.494;11.974;2022-09-03T00:04:09;0.77;;;0.75;;
9970;SDS011;5026;51.494;11.974;2022-09-03T00:06:44;1.27;;;0.98;;
9970;SDS011;5026;51.494;11.974;2022-09-03T00:09:14;1.70;;;0.80;;
9970;SDS011;5026;51.494;11.974;2022-09-03T00:11:51;1.17;;;1.08;;
9970;SDS011;5026;51.494;11.974;2022-09-03T00:14:24;1.60;;;1.02;;
9970;SDS011;5026;51.494;11.974;2022-09-03T00:16:59;1.10;;;0.80;;
9970;SDS011;5026;51.494;11.974;2022-09-03T00:19:32;2.22;;;1.13;;
9970;SDS011;5026;51.494;11.974;2022-09-03T00:22:07;2.53;;;1.25;;
9970;SDS011;5026;51.494;11.974;2022-09-03T00:24:39;1.83;;;1.00;;
9970;SDS011;5026;51.494;11.974;2022-09-03T00:27:10;1.98;;;0.98;;
9970;SDS011;5026;51.494;11.974;2022-09-03T00:29:42;1.55;;;0.90;;
9970;SDS011;5026;51.494;11.974;2022-09-03T00:32:13;5.15;;;1.30;;
9970;SDS011;5026;51.494;11.974;2022-09-03T00:34:46;1.13;;;0.82;;
9970;SDS011;5026;51.494;11.974;2022-09-03T00:37:16;2.20;;;1.23;;
9970;SDS011;5026;51.494;11.974;2022-09-03T00:39:43;1.67;;;0.80;;
9970;SDS011;5026;51.494;11.974;2022-09-03T00:42:16;2.17;;;0.80;;
9970;SDS011;5026;51.494;11.974;2022-09-03T00:44:53;0.73;;;0.73;;
9970;SDS011;5026;51.494;11.974;2022-09-03T00:47:29;1.30;;;1.20;;
9970;SDS011;5026;51.494;11.974;2022-09-03T00:50:06;0.93;;;0.82;;
9970;SDS011;5026;51.494;11.974;2022-09-03T00:52:40;1.05;;;0.95;;
9970;SDS011;5026;51.494;11.974;2022-09-03T00:55:16;1.40;;;0.95;;
9970;SDS011;5026;51.494;11.974;2022-09-03T00:57:52;1.17;;;0.88;;
9970;SDS011;5026;51.494;11.974;2022-09-03T01:00:34;1.70;;;1.35;;
9970;SDS011;5026;51.494;11.974;2022-09-03T01:03:04;1.10;;;1.00;;
9970;SDS011;5026;51.494;11.974;2022-09-03T01:05:40;1.52;;;0.93;;
9970;SDS011;5026;51.494;11.974;2022-09-03T01:08:25;1.20;;;0.93;;
9970;SDS011;5026;51.494;11.974;2022-09-03T01:11:02;0.90;;;0.90;;
9970;SDS011;5026;51.494;11.974;2022-09-03T01:13:37;2.42;;;0.93;;
9970;SDS011;5026;51.494;11.974;2022-09-03T01:16:11;1.05;;;1.02;;
9970;SDS011;5026;51.494;11.974;2022-09-03T01:18:49;1.73;;;0.90;;
9970;SDS011;5026;51.494;11.974;2022-09-03T01:21:28;0.88;;;0.88;;
9970;SDS011;5026;51.494;11.974;2022-09-03T01:24:23;1.58;;;0.90;;
9970;SDS011;5026;51.494;11.974;2022-09-03T01:29:52;3.03;;;1.52;;
9970;SDS011;5026;51.494;11.974;2022-09-03T01:32:26;1.13;;;1.00;;
9970;SDS011;5026;51.494;11.974;2022-09-03T01:35:01;2.17;;;1.08;;
9970;SDS011;5026;51.494;11.974;2022-09-03T01:37:34;3.00;;;1.17;;
9970;SDS011;5026;51.494;11.974;2022-09-03T01:40:14;3.40;;;1.40;;
9970;SDS011;5026;51.494;11.974;2022-09-03T01:42:50;2.15;;;1.20;;
9970;SDS011;5026;51.494;11.974;2022-09-03T01:45:34;3.47;;;1.40;;
9970;SDS011;5026;51.494;11.974;2022-09-03T01:48:13;2.13;;;1.30;;
9970;SDS011;5026;51.494;11.974;2022-09-03T01:50:55;1.70;;;0.80;;
9970;SDS011;5026;51.494;11.974;2022-09-03T01:53:33;2.88;;;1.33;;
9970;SDS011;5026;51.494;11.974;2022-09-03T01:56:16;2.13;;;1.10;;
9970;SDS011;5026;51.494;11.974;2022-09-03T01:58:53;1.27;;;1.10;;
9970;SDS011;5026;51.494;11.974;2022-09-03T02:01:29;1.67;;;1.27;;
9970;SDS011;5026;51.494;11.974;2022-09-03T02:04:00;2.50;;;1.20;;
9970;SDS011;5026;51.494;11.974;2022-09-03T02:06:28;2.13;;;1.25;;
9970;SDS011;5026;51.494;11.974;2022-09-03T02:08:56;1.17;;;1.08;;
9970;SDS011;5026;51.494;11.974;2022-09-03T02:11:23;1.30;;;1.10;;
9970;SDS011;5026;51.494;11.974;2022-09-03T02:13:51;6.25;;;1.30;;
9970;SDS011;5026;51.494;11.974;2022-09-03T02:16:24;2.30;;;1.27;;
9970;SDS011;5026;51.494;11.974;2022-09-03T02:18:57;1.60;;;1.10;;
9970;SDS011;5026;51.494;11.974;2022-09-03T02:21:26;1.42;;;1.30;;
9970;SDS011;5026;51.494;11.974;2022-09-03T02:23:58;4.78;;;1.20;;
9970;SDS011;5026;51.494;11.974;2022-09-03T02:26:25;3.43;;;1.07;;
9970;SDS011;5026;51.494;11.974;2022-09-03T02:28:52;2.47;;;1.30;;
9970;SDS011;5026;51.494;11.974;2022-09-03T02:31:20;1.33;;;0.97;;
9970;SDS011;5026;51.494;11.974;2022-09-03T02:33:48;1.83;;;1.10;;
9970;SDS011;5026;51.494;11.974;2022-09-03T02:36:18;2.77;;;1.10;;
9970;SDS011;5026;51.494;11.974;2022-09-03T02:38:49;1.57;;;1.30;;
9970;SDS011;5026;51.494;11.974;2022-09-03T02:41:16;3.83;;;1.10;;
9970;SDS011;5026;51.494;11.974;2022-09-03T02:43:44;4.17;;;1.53;;
9970;SDS011;5026;51.494;11.974;2022-09-03T02:46:16;1.87;;;1.07;;
9970;SDS011;5026;51.494;11.974;2022-09-03T02:48:47;2.67;;;1.20;;
9970;SDS011;5026;51.494;11.974;2022-09-03T02:51:14;2.00;;;1.00;;
9970;SDS011;5026;51.494;11.974;2022-09-03T02:53:42;2.00;;;1.20;;
9970;SDS011;5026;51.494;11.974;2022-09-03T02:56:09;2.00;;;1.20;;
9970;SDS011;5026;51.494;11.974;2022-09-03T02:58:37;3.40;;;1.50;;
9970;SDS011;5026;51.494;11.974;2022-09-03T03:01:05;2.97;;;1.47;;
9970;SDS011;5026;51.494;11.974;2022-09-03T03:03:32;1.83;;;1.07;;
9970;SDS011;5026;51.494;11.974;2022-09-03T03:05:59;2.47;;;1.30;;
9970;SDS011;5026;51.494;11.974;2022-09-03T03:08:28;1.93;;;1.33;;
9970;SDS011;5026;51.494;11.974;2022-09-03T03:10:59;1.27;;;1.10;;
9970;SDS011;5026;51.494;11.974;2022-09-03T03:13:27;1.40;;;1.30;;
9970;SDS011;5026;51.494;11.974;2022-09-03T03:15:55;3.83;;;1.20;;
9970;SDS011;5026;51.494;11.974;2022-09-03T03:18:22;1.67;;;1.10;;
9970;SDS011;5026;51.494;11.974;2022-09-03T03:20:50;3.63;;;1.17;;
9970;SDS011;5026;51.494;11.974;2022-09-03T03:23:18;2.80;;;1.50;;
9970;SDS011;5026;51.494;11.974;2022-09-03T03:25:45;4.87;;;1.10;;
9970;SDS011;5026;51.494;11.974;2022-09-03T03:28:14;1.40;;;1.30;;
9970;SDS011;5026;51.494;11.974;2022-09-03T03:30:43;2.13;;;1.30;;
9970;SDS011;5026;51.494;11.974;2022-09-03T03:33:12;1.37;;;1.17;;
9970;SDS011;5026;51.494;11.974;2022-09-03T03:35:39;3.10;;;1.03;;
9970;SDS011;5026;51.494;11.974;2022-09-03T03:38:06;4.10;;;1.37;;
9970;SDS011;5026;51.494;11.974;2022-09-03T03:40:33;1.97;;;1.20;;
9970;SDS011;5026;51.494;11.974;2022-09-03T03:43:02;4.73;;;1.20;;
9970;SDS011;5026;51.494;11.974;2022-09-03T03:45:31;4.93;;;1.30;;
9970;SDS011;5026;51.494;11.974;2022-09-03T03:47:58;2.40;;;1.40;;
9970;SDS011;5026;51.494;11.974;2022-09-03T03:50:25;1.23;;;1.07;;
9970;SDS011;5026;51.494;11.974;2022-09-03T03:52:52;2.87;;;1.67;;
9970;SDS011;5026;51.494;11.974;2022-09-03T03:55:19;1.50;;;1.40;;
9970;SDS011;5026;51.494;11.974;2022-09-03T03:57:46;2.97;;;1.30;;
9970;SDS011;5026;51.494;11.974;2022-09-03T04:00:14;10.77;;;2.20;;
9970;SDS011;5026;51.494;11.974;2022-09-03T04:02:43;3.73;;;1.47;;
9970;SDS011;5026;51.494;11.974;2022-09-03T04:05:11;1.50;;;1.40;;
9970;SDS011;5026;51.494;11.974;2022-09-03T04:07:39;3.03;;;1.17;;
9970;SDS011;5026;51.494;11.974;2022-09-03T04:10:08;2.60;;;1.63;;
9970;SDS011;5026;51.494;11.974;2022-09-03T04:12:35;2.57;;;1.57;;
9970;SDS011;5026;51.494;11.974;2022-09-03T04:15:02;21.83;;;3.33;;
9970;SDS011;5026;51.494;11.974;2022-09-03T04:17:30;13.43;;;2.97;;
9970;SDS011;5026;51.494;11.974;2022-09-03T04:19:59;14.70;;;3.20;;
9970;SDS011;5026;51.494;11.974;2022-09-03T04:22:27;9.30;;;2.63;;
9970;SDS011;5026;51.494;11.974;2022-09-03T04:24:54;9.57;;;2.57;;
9970;SDS011;5026;51.494;11.974;2022-09-03T04:27:21;4.30;;;1.70;;
9970;SDS011;5026;51.494;11.974;2022-09-03T04:29:48;1.87;;;1.40;;
9970;SDS011;5026;51.494;11.974;2022-09-03T04:32:16;2.97;;;1.53;;
9970;SDS011;5026;51.494;11.974;2022-09-03T04:35:02;3.10;;;1.40;;
9970;SDS011;5026;51.494;11.974;2022-09-03T04:37:29;2.90;;;1.57;;
9970;SDS011;5026;51.494;11.974;2022-09-03T04:39:56;2.03;;;1.53;;
9970;SDS011;5026;51.494;11.974;2022-09-03T04:42:23;1.80;;;1.60;;
9970;SDS011;5026;51.494;11.974;2022-09-03T04:44:51;3.50;;;1.70;;
9970;SDS011;5026;51.494;11.974;2022-09-03T04:47:18;2.63;;;1.37;;
9970;SDS011;5026;51.494;11.974;2022-09-03T04:49:45;2.13;;;1.93;;
9970;SDS011;5026;51.494;11.974;2022-09-03T04:52:13;1.60;;;1.40;;
9970;SDS011;5026;51.494;11.974;2022-09-03T04:54:40;1.70;;;1.60;;
9970;SDS011;5026;51.494;11.974;2022-09-03T04:57:07;1.60;;;1.50;;
9970;SDS011;5026;51.494;11.974;2022-09-03T04:59:34;3.50;;;1.77;;
9970;SDS011;5026;51.494;11.974;2022-09-03T05:02:02;2.30;;;1.80;;
9970;SDS011;5026;51.494;11.974;2022-09-03T05:04:29;2.13;;;1.70;;
9970;SDS011;5026;51.494;11.974;2022-09-03T05:06:56;5.73;;;1.50;;
9970;SDS011;5026;51.494;11.974;2022-09-03T05:09:25;1.90;;;1.80;;
9970;SDS011;5026;51.494;11.974;2022-09-03T05:11:51;2.10;;;1.90;;
9970;SDS011;5026;51.494;11.974;2022-09-03T05:14:19;3.10;;;1.73;;
9970;SDS011;5026;51.494;11.974;2022-09-03T05:16:47;2.73;;;1.83;;
9970;SDS011;5026;51.494;11.974;2022-09-03T05:19:14;2.10;;;1.47;;
9970;SDS011;5026;51.494;11.974;2022-09-03T05:21:41;2.20;;;2.00;;
9970;SDS011;5026;51.494;11.974;2022-09-03T05:24:08;2.93;;;1.67;;
9970;SDS011;5026;51.494;11.974;2022-09-03T05:26:38;3.27;;;1.43;;
9970;SDS011;5026;51.494;11.974;2022-09-03T05:29:06;2.77;;;1.83;;
9970;SDS011;5026;51.494;11.974;2022-09-03T05:31:34;1.83;;;1.73;;
9970;SDS011;5026;51.494;11.974;2022-09-03T05:34:03;3.17;;;1.70;;
9970;SDS011;5026;51.494;11.974;2022-09-03T05:36:31;2.60;;;1.53;;
9970;SDS011;5026;51.494;11.974;2022-09-03T05:38:59;2.90;;;1.57;;
9970;SDS011;5026;51.494;11.974;2022-09-03T05:41:27;2.10;;;1.57;;
9970;SDS011;5026;51.494;11.974;2022-09-03T05:43:56;2.07;;;1.60;;
9970;SDS011;5026;51.494;11.974;2022-09-03T05:46:24;6.47;;;2.20;;
9970;SDS011;5026;51.494;11.974;2022-09-03T05:48:56;1.70;;;1.60;;
9970;SDS011;5026;51.494;11.974;2022-09-03T05:51:24;1.90;;;1.50;;
9970;SDS011;5026;51.494;11.974;2022-09-03T05:53:51;3.93;;;2.00;;
9970;SDS011;5026;51.494;11.974;2022-09-03T05:56:20;2.63;;;1.63;;
9970;SDS011;5026;51.494;11.974;2022-09-03T05:58:49;2.37;;;1.40;;
9970;SDS011;5026;51.494;11.974;2022-09-03T06:01:19;2.77;;;1.60;;
9970;SDS011;5026;51.494;11.974;2022-09-03T06:03:51;1.70;;;1.60;;
9970;SDS011;5026;51.494;11.974;2022-09-03T06:06:20;4.13;;;1.50;;
9970;SDS011;5026;51.494;11.974;2022-09-03T06:08:49;5.93;;;1.87;;
9970;SDS011;5026;51.494;11.974;2022-09-03T06:11:16;2.43;;;1.50;;
9970;SDS011;5026;51.494;11.974;2022-09-03T06:13:43;3.40;;;1.87;;
9970;SDS011;5026;51.494;11.974;2022-09-03T06:16:11;2.33;;;1.60;;
9970;SDS011;5026;51.494;11.974;2022-09-03T06:18:40;2.67;;;2.00;;
9970;SDS011;5026;51.494;11.974;2022-09-03T06:21:06;1.88;;;1.73;;
9970;SDS011;5026;51.494;11.974;2022-09-03T06:23:34;2.37;;;1.87;;
9970;SDS011;5026;51.494;11.974;2022-09-03T06:26:02;3.43;;;2.13;;
9970;SDS011;5026;51.494;11.974;2022-09-03T06:28:29;2.60;;;1.80;;
9970;SDS011;5026;51.494;11.974;2022-09-03T06:30:58;5.13;;;1.60;;
9970;SDS011;5026;51.494;11.974;2022-09-03T06:33:26;3.97;;;1.65;;
9970;SDS011;5026;51.494;11.974;2022-09-03T06:35:57;3.70;;;1.80;;
9970;SDS011;5026;51.494;11.974;2022-09-03T06:38:25;3.03;;;1.48;;
9970;SDS011;5026;51.494;11.974;2022-09-03T06:40:53;2.10;;;1.65;;
9970;SDS011;5026;51.494;11.974;2022-09-03T06:43:21;1.90;;;1.40;;
9970;SDS011;5026;51.494;11.974;2022-09-03T06:45:52;1.77;;;1.67;;
9970;SDS011;5026;51.494;11.974;2022-09-03T06:48:20;2.97;;;1.85;;
9970;SDS011;5026;51.494;11.974;2022-09-03T06:50:52;3.08;;;1.20;;
9970;SDS011;5026;51.494;11.974;2022-09-03T06:53:27;3.03;;;1.60;;
9970;SDS011;5026;51.494;11.974;2022-09-03T06:55:56;1.45;;;1.35;;
9970;SDS011;5026;51.494;11.974;2022-09-03T06:58:24;3.42;;;1.55;;
9970;SDS011;5026;51.494;11.974;2022-09-03T07:00:59;2.45;;;1.60;;
9970;SDS011;5026;51.494;11.974;2022-09-03T07:03:28;3.30;;;1.40;;
9970;SDS011;5026;51.494;11.974;2022-09-03T07:05:58;2.00;;;1.60;;
9970;SDS011;5026;51.494;11.974;2022-09-03T07:08:27;3.40;;;1.35;;
9970;SDS011;5026;51.494;11.974;2022-09-03T07:10:56;2.13;;;1.27;;
9970;SDS011;5026;51.494;11.974;2022-09-03T07:13:24;1.77;;;1.52;;
9970;SDS011;5026;51.494;11.974;2022-09-03T07:15:57;2.60;;;1.40;;
9970;SDS011;5026;51.494;11.974;2022-09-03T07:18:25;1.55;;;1.38;;
9970;SDS011;5026;51.494;11.974;2022-09-03T07:20:56;1.75;;;1.20;;
9970;SDS011;5026;51.494;11.974;2022-09-03T07:23:24;3.08;;;1.60;;
9970;SDS011;5026;51.494;11.974;2022-09-03T07:25:54;1.67;;;1.55;;
9970;SDS011;5026;51.494;11.974;2022-09-03T07:28:22;2.38;;;1.30;;
9970;SDS011;5026;51.494;11.974;2022-09-03T07:30:49;1.35;;;1.20;;
9970;SDS011;5026;51.494;11.974;2022-09-03T07:33:17;3.17;;;1.70;;
9970;SDS011;5026;51.494;11.974;2022-09-03T07:35:44;1.52;;;1.35;;
9970;SDS011;5026;51.494;11.974;2022-09-03T07:38:15;2.28;;;1.50;;
9970;SDS011;5026;51.494;11.974;2022-09-03T07:40:43;2.80;;;1.65;;
9970;SDS011;5026;51.494;11.974;2022-09-03T07:43:12;2.05;;;1.38;;
9970;SDS011;5026;51.494;11.974;2022-09-03T07:45:39;2.22;;;1.10;;
9970;SDS011;5026;51.494;11.974;2022-09-03T07:48:09;2.28;;;1.58;;
9970;SDS011;5026;51.494;11.974;2022-09-03T07:50:36;2.70;;;1.40;;
9970;SDS011;5026;51.494;11.974;2022-09-03T07:53:04;2.88;;;1.65;;
9970;SDS011;5026;51.494;11.974;2022-09-03T07:55:32;3.38;;;1.63;;
9970;SDS011;5026;51.494;11.974;2022-09-03T07:57:59;2.00;;;1.27;;
9970;SDS011;5026;51.494;11.974;2022-09-03T08:00:27;4.18;;;1.60;;
9970;SDS011;5026;51.494;11.974;2022-09-03T08:02:57;2.28;;;1.50;;
9970;SDS011;5026;51.494;11.974;2022-09-03T08:05:30;1.20;;;1.08;;
9970;SDS011;5026;51.494;11.974;2022-09-03T08:07:58;2.65;;;1.38;;
9970;SDS011;5026;51.494;11.974;2022-09-03T08:10:25;1.38;;;1.27;;
9970;SDS011;5026;51.494;11.974;2022-09-03T08:12:54;3.50;;;1.27;;
9970;SDS011;5026;51.494;11.974;2022-09-03T08:15:21;2.55;;;1.60;;
9970;SDS011;5026;51.494;11.974;2022-09-03T08:17:49;1.60;;;1.50;;
9970;SDS011;5026;51.494;11.974;2022-09-03T08:20:16;1.42;;;1.33;;
9970;SDS011;5026;51.494;11.974;2022-09-03T08:22:43;2.20;;;1.20;;
9970;SDS011;5026;51.494;11.974;2022-09-03T08:25:10;1.60;;;1.27;;
9970;SDS011;5026;51.494;11.974;2022-09-03T08:27:37;3.83;;;1.30;;
9970;SDS011;5026;51.494;11.974;2022-09-03T08:30:05;3.42;;;1.50;;
9970;SDS011;5026;51.494;11.974;2022-09-03T08:32:35;4.63;;;1.33;;
9970;SDS011;5026;51.494;11.974;2022-09-03T08:35:05;3.20;;;1.50;;
9970;SDS011;5026;51.494;11.974;2022-09-03T08:37:33;2.47;;;1.40;;
9970;SDS011;5026;51.494;11.974;2022-09-03T08:40:00;1.75;;;1.42;;
9970;SDS011;5026;51.494;11.974;2022-09-03T08:42:36;2.40;;;1.63;;
9970;SDS011;5026;51.494;11.974;2022-09-03T08:45:11;2.13;;;1.23;;
9970;SDS011;5026;51.494;11.974;2022-09-03T08:47:42;4.00;;;1.45;;
9970;SDS011;5026;51.494;11.974;2022-09-03T08:50:15;1.65;;;1.25;;
9970;SDS011;5026;51.494;11.974;2022-09-03T08:52:48;1.75;;;1.50;;
9970;SDS011;5026;51.494;11.974;2022-09-03T08:55:21;3.63;;;1.25;;
9970;SDS011;5026;51.494;11.974;2022-09-03T08:57:51;4.18;;;1.38;;
9970;SDS011;5026;51.494;11.974;2022-09-03T09:00:23;2.10;;;1.50;;
9970;SDS011;5026;51.494;11.974;2022-09-03T09:02:57;1.58;;;1.30;;
9970;SDS011;5026;51.494;11.974;2022-09-03T09:05:37;1.95;;;1.40;;
9970;SDS011;5026;51.494;11.974;2022-09-03T09:08:14;4.10;;;1.42;;
9970;SDS011;5026;51.494;11.974;2022-09-03T09:10:46;1.30;;;1.15;;
9970;SDS011;5026;51.494;11.974;2022-09-03T09:13:17;1.15;;;1.05;;
9970;SDS011;5026;51.494;11.974;2022-09-03T09:15:53;1.95;;;1.15;;
9970;SDS011;5026;51.494;11.974;2022-09-03T09:18:29;2.38;;;1.40;;
9970;SDS011;5026;51.494;11.974;2022-09-03T09:21:08;3.92;;;1.20;;
9970;SDS011;5026;51.494;11.974;2022-09-03T09:23:39;4.97;;;1.20;;
9970;SDS011;5026;51.494;11.974;2022-09-03T09:26:09;1.90;;;1.20;;
9970;SDS011;5026;51.494;11.974;2022-09-03T09:28:39;2.58;;;1.27;;
9970;SDS011;5026;51.494;11.974;2022-09-03T09:31:09;3.03;;;1.30;;
9970;SDS011;5026;51.494;11.974;2022-09-03T09:33:39;2.15;;;1.27;;
9970;SDS011;5026;51.494;11.974;2022-09-03T09:36:08;1.02;;;0.98;;
9970;SDS011;5026;51.494;11.974;2022-09-03T09:38:39;1.63;;;1.35;;
9970;SDS011;5026;51.494;11.974;2022-09-03T09:41:07;3.00;;;0.98;;
9970;SDS011;5026;51.494;11.974;2022-09-03T09:43:35;3.75;;;1.10;;
9970;SDS011;5026;51.494;11.974;2022-09-03T09:46:05;1.15;;;1.05;;
9970;SDS011;5026;51.494;11.974;2022-09-03T09:48:36;1.73;;;1.08;;
9970;SDS011;5026;51.494;11.974;2022-09-03T09:51:09;1.15;;;0.98;;
9970;SDS011;5026;51.494;11.974;2022-09-03T09:53:37;3.22;;;1.27;;
9970;SDS011;5026;51.494;11.974;2022-09-03T09:56:05;3.30;;;1.27;;
9970;SDS011;5026;51.494;11.974;2022-09-03T09:58:33;2.05;;;1.10;;
9970;SDS011;5026;51.494;11.974;2022-09-03T10:01:01;3.65;;;1.35;;
9970;SDS011;5026;51.494;11.974;2022-09-03T10:03:38;1.63;;;1.20;;
9970;SDS011;5026;51.494;11.974;2022-09-03T10:06:09;1.90;;;1.10;;
9970;SDS011;5026;51.494;11.974;2022-09-03T10:09:04;2.13;;;1.20;;
9970;SDS011;5026;51.494;11.974;2022-09-03T10:11:33;3.05;;;1.20;;
9970;SDS011;5026;51.494;11.974;2022-09-03T10:14:01;1.65;;;1.15;;
9970;SDS011;5026;51.494;11.974;2022-09-03T10:16:34;1.92;;;1.23;;
9970;SDS011;5026;51.494;11.974;2022-09-03T10:19:08;2.45;;;1.60;;
9970;SDS011;5026;51.494;11.974;2022-09-03T10:21:40;1.60;;;1.23;;
9970;SDS011;5026;51.494;11.974;2022-09-03T10:24:14;2.35;;;1.40;;
9970;SDS011;5026;51.494;11.974;2022-09-03T10:26:58;1.63;;;1.25;;
9970;SDS011;5026;51.494;11.974;2022-09-03T10:29:25;2.22;;;1.17;;
9970;SDS011;5026;51.494;11.974;2022-09-03T10:31:56;3.78;;;1.83;;
9970;SDS011;5026;51.494;11.974;2022-09-03T10:34:36;2.65;;;1.70;;
9970;SDS011;5026;51.494;11.974;2022-09-03T10:37:16;2.72;;;1.30;;
9970;SDS011;5026;51.494;11.974;2022-09-03T10:39:51;1.35;;;1.25;;
9970;SDS011;5026;51.494;11.974;2022-09-03T10:42:34;2.05;;;1.30;;
9970;SDS011;5026;51.494;11.974;2022-09-03T10:45:14;1.20;;;1.10;;
9970;SDS011;5026;51.494;11.974;2022-09-03T10:47:55;1.70;;;1.10;;
9970;SDS011;5026;51.494;11.974;2022-09-03T10:50:51;1.50;;;1.17;;
9970;SDS011;5026;51.494;11.974;2022-09-03T10:56:31;2.53;;;1.50;;
9970;SDS011;5026;51.494;11.974;2022-09-03T10:59:11;1.77;;;1.38;;
9970;SDS011;5026;51.494;11.974;2022-09-03T11:01:54;1.40;;;1.30;;
9970;SDS011;5026;51.494;11.974;2022-09-03T11:04:31;1.52;;;1.40;;
9970;SDS011;5026;51.494;11.974;2022-09-03T11:07:04;3.13;;;1.27;;
9970;SDS011;5026;51.494;11.974;2022-09-03T11:09:37;1.45;;;1.23;;
9970;SDS011;5026;51.494;11.974;2022-09-03T11:12:08;2.28;;;1.55;;
9970;SDS011;5026;51.494;11.974;2022-09-03T11:14:39;4.57;;;1.30;;
9970;SDS011;5026;51.494;11.974;2022-09-03T11:17:11;2.33;;;1.33;;
9970;SDS011;5026;51.494;11.974;2022-09-03T11:19:47;1.45;;;1.35;;
9970;SDS011;5026;51.494;11.974;2022-09-03T11:22:17;4.93;;;1.30;;
9970;SDS011;5026;51.494;11.974;2022-09-03T11:24:50;4.50;;;1.50;;
9970;SDS011;5026;51.494;11.974;2022-09-03T11:27:25;5.93;;;1.60;;
9970;SDS011;5026;51.494;11.974;2022-09-03T11:30:01;3.67;;;1.27;;
9970;SDS011;5026;51.494;11.974;2022-09-03T11:32:35;1.40;;;1.30;;
9970;SDS011;5026;51.494;11.974;2022-09-03T11:35:13;3.70;;;1.90;;
9970;SDS011;5026;51.494;11.974;2022-09-03T11:37:47;3.22;;;1.50;;
9970;SDS011;5026;51.494;11.974;2022-09-03T11:40:27;3.25;;;1.40;;
9970;SDS011;5026;51.494;11.974;2022-09-03T11:45:59;2.78;;;1.17;;
9970;SDS011;5026;51.494;11.974;2022-09-03T11:48:36;3.97;;;1.60;;
9970;SDS011;5026;51.494;11.974;2022-09-03T11:51:16;2.13;;;1.20;;
9970;SDS011;5026;51.494;11.974;2022-09-03T11:53:52;2.72;;;1.40;;
9970;SDS011;5026;51.494;11.974;2022-09-03T11:56:21;4.72;;;1.52;;
9970;SDS011;5026;51.494;11.974;2022-09-03T11:58:58;1.63;;;1.38;;
9970;SDS011;5026;51.494;11.974;2022-09-03T12:01:42;1.27;;;1.15;;
9970;SDS011;5026;51.494;11.974;2022-09-03T12:04:15;3.42;;;1.50;;
9970;SDS011;5026;51.494;11.974;2022-09-03T12:06:48;4.43;;;1.55;;
9970;SDS011;5026;51.494;11.974;2022-09-03T12:09:33;3.00;;;1.45;;
9970;SDS011;5026;51.494;11.974;2022-09-03T12:12:17;1.40;;;1.30;;
9970;SDS011;5026;51.494;11.974;2022-09-03T12:15:06;1.45;;;1.30;;
9970;SDS011;5026;51.494;11.974;2022-09-03T12:17:41;2.90;;;1.30;;
9970;SDS011;5026;51.494;11.974;2022-09-03T12:20:36;6.35;;;1.60;;
9970;SDS011;5026;51.494;11.974;2022-09-03T12:23:03;1.63;;;1.50;;
9970;SDS011;5026;51.494;11.974;2022-09-03T12:25:31;3.47;;;1.10;;
9970;SDS011;5026;51.494;11.974;2022-09-03T12:28:00;2.28;;;1.40;;
9970;SDS011;5026;51.494;11.974;2022-09-03T12:30:36;2.22;;;1.52;;
9970;SDS011;5026;51.494;11.974;2022-09-03T12:33:04;4.05;;;1.52;;
9970;SDS011;5026;51.494;11.974;2022-09-03T12:35:32;3.90;;;1.50;;
9970;SDS011;5026;51.494;11.974;2022-09-03T12:37:59;1.40;;;1.20;;
9970;SDS011;5026;51.494;11.974;2022-09-03T12:40:27;1.13;;;1.10;;
9970;SDS011;5026;51.494;11.974;2022-09-03T12:43:10;3.75;;;1.45;;
9970;SDS011;5026;51.494;11.974;2022-09-03T12:45:41;6.45;;;1.88;;
9970;SDS011;5026;51.494;11.974;2022-09-03T12:48:13;2.05;;;1.30;;
9970;SDS011;5026;51.494;11.974;2022-09-03T12:50:41;6.13;;;1.50;;
9970;SDS011;5026;51.494;11.974;2022-09-03T12:53:09;2.60;;;1.35;;
9970;SDS011;5026;51.494;11.974;2022-09-03T12:55:41;3.80;;;1.25;;
9970;SDS011;5026;51.494;11.974;2022-09-03T12:58:12;2.60;;;1.30;;
9970;SDS011;5026;51.494;11.974;2022-09-03T13:00:43;4.00;;;1.20;;
9970;SDS011;5026;51.494;11.974;2022-09-03T13:03:15;2.28;;;1.17;;
9970;SDS011;5026;51.494;11.974;2022-09-03T13:05:46;1.60;;;1.50;;
9970;SDS011;5026;51.494;11.974;2022-09-03T13:08:19;2.42;;;1.30;;
9970;SDS011;5026;51.494;11.974;2022-09-03T13:10:50;1.65;;;1.17;;
9970;SDS011;5026;51.494;11.974;2022-09-03T13:13:22;2.60;;;1.25;;
9970;SDS011;5026;51.494;11.974;2022-09-03T13:18:53;2.42;;;1.23;;
9970;SDS011;5026;51.494;11.974;2022-09-03T13:21:28;5.70;;;1.50;;
9970;SDS011;5026;51.494;11.974;2022-09-03T13:24:12;2.40;;;1.20;;
9970;SDS011;5026;51.494;11.974;2022-09-03T13:26:55;2.13;;;1.45;;
9970;SDS011;5026;51.494;11.974;2022-09-03T13:29:38;4.05;;;1.45;;
9970;SDS011;5026;51.494;11.974;2022-09-03T13:32:16;1.98;;;1.60;;
9970;SDS011;5026;51.494;11.974;2022-09-03T13:34:52;1.95;;;1.33;;
9970;SDS011;5026;51.494;11.974;2022-09-03T13:37:24;1.33;;;1.08;;
9970;SDS011;5026;51.494;11.974;2022-09-03T13:39:57;1.70;;;1.45;;
9970;SDS011;5026;51.494;11.974;2022-09-03T13:42:31;1.40;;;1.10;;
9970;SDS011;5026;51.494;11.974;2022-09-03T13:45:05;5.13;;;1.42;;
9970;SDS011;5026;51.494;11.974;2022-09-03T13:47:43;1.90;;;1.30;;
9970;SDS011;5026;51.494;11.974;2022-09-03T13:50:29;2.17;;;1.10;;
9970;SDS011;5026;51.494;11.974;2022-09-03T13:53:06;1.90;;;1.27;;
9970;SDS011;5026;51.494;11.974;2022-09-03T13:55:41;1.17;;;1.10;;
9970;SDS011;5026;51.494;11.974;2022-09-03T13:58:17;1.73;;;1.33;;
9970;SDS011;5026;51.494;11.974;2022-09-03T14:00:51;2.47;;;1.27;;
9970;SDS011;5026;51.494;11.974;2022-09-03T14:03:32;2.47;;;1.45;;
9970;SDS011;5026;51.494;11.974;2022-09-03T14:06:05;1.67;;;1.20;;
9970;SDS011;5026;51.494;11.974;2022-09-03T14:08:39;3.55;;;1.10;;
9970;SDS011;5026;51.494;11.974;2022-09-03T14:11:26;5.32;;;1.25;;
9970;SDS011;5026;51.494;11.974;2022-09-03T14:14:02;4.10;;;1.40;;
9970;SDS011;5026;51.494;11.974;2022-09-03T14:16:41;3.10;;;1.20;;
9970;SDS011;5026;51.494;11.974;2022-09-03T14:19:14;2.55;;;1.00;;
9970;SDS011;5026;51.494;11.974;2022-09-03T14:21:46;2.05;;;1.38;;
9970;SDS011;5026;51.494;11.974;2022-09-03T14:24:19;1.75;;;1.23;;
9970;SDS011;5026;51.494;11.974;2022-09-03T14:26:52;3.35;;;1.40;;
9970;SDS011;5026;51.494;11.974;2022-09-03T14:29:22;2.85;;;1.33;;
9970;SDS011;5026;51.494;11.974;2022-09-03T14:31:59;1.73;;;1.15;;
9970;SDS011;5026;51.494;11.974;2022-09-03T14:34:48;1.27;;;1.17;;
9970;SDS011;5026;51.494;11.974;2022-09-03T14:37:31;3.28;;;1.40;;
9970;SDS011;5026;51.494;11.974;2022-09-03T14:40:10;4.22;;;1.35;;
9970;SDS011;5026;51.494;11.974;2022-09-03T14:42:46;1.27;;;1.13;;
9970;SDS011;5026;51.494;11.974;2022-09-03T14:48:32;2.17;;;1.30;;
9970;SDS011;5026;51.494;11.974;2022-09-03T14:51:31;6.53;;;1.33;;
9970;SDS011;5026;51.494;11.974;2022-09-03T14:57:24;3.83;;;1.60;;
9970;SDS011;5026;51.494;11.974;2022-09-03T15:00:06;3.10;;;1.33;;
9970;SDS011;5026;51.494;11.974;2022-09-03T15:05:50;2.60;;;1.60;;
9970;SDS011;5026;51.494;11.974;2022-09-03T15:11:18;3.42;;;1.50;;
9970;SDS011;5026;51.494;11.974;2022-09-03T15:13:50;1.77;;;1.45;;
9970;SDS011;5026;51.494;11.974;2022-09-03T15:16:24;2.75;;;1.60;;
9970;SDS011;5026;51.494;11.974;2022-09-03T15:19:04;2.20;;;1.38;;
9970;SDS011;5026;51.494;11.974;2022-09-03T15:21:49;2.53;;;2.03;;
9970;SDS011;5026;51.494;11.974;2022-09-03T15:24:33;2.65;;;1.58;;
9970;SDS011;5026;51.494;11.974;2022-09-03T15:27:13;1.38;;;1.20;;
9970;SDS011;5026;51.494;11.974;2022-09-03T15:29:55;3.42;;;1.38;;
9970;SDS011;5026;51.494;11.974;2022-09-03T15:32:31;2.45;;;1.30;;
9970;SDS011;5026;51.494;11.974;2022-09-03T15:35:11;1.75;;;1.30;;
9970;SDS011;5026;51.494;11.974;2022-09-03T15:37:56;2.08;;;1.45;;
9970;SDS011;5026;51.494;11.974;2022-09-03T15:40:27;2.85;;;1.40;;
9970;SDS011;5026;51.494;11.974;2022-09-03T15:42:59;2.88;;;1.50;;
9970;SDS011;5026;51.494;11.974;2022-09-03T15:45:32;2.95;;;1.33;;
9970;SDS011;5026;51.494;11.974;2022-09-03T15:48:09;2.38;;;1.25;;
9970;SDS011;5026;51.494;11.974;2022-09-03T15:50:49;2.50;;;1.88;;
9970;SDS011;5026;51.494;11.974;2022-09-03T15:53:26;1.65;;;1.17;;
9970;SDS011;5026;51.494;11.974;2022-09-03T15:56:03;1.50;;;1.20;;